Time;durP1;ratioP1;P1;durP2;ratioP2;P2;SDS_P1;SDS_P2;PMS_P1;PMS_P2;Temp;Humidity;BMP_temperature;BMP_pressure;BME280_temperature;BME280_humidity;BME280_pressure;Samples;Min_cycle;Max_cycle;Signal;HPM_P1;HPM_P2
2022/08/26 00:02:45;;;;;;;4.25;2.50;;;;;;;;;;10369854;28;20033;-59
2022/08/26 00:07:46;;;;;;;12.32;2.90;;;;;;;;;;10368513;28;20052;-59
2022/08/26 00:12:46;;;;;;;6.35;2.20;;;;;;;;;;10362796;28;20044;-59
2022/08/26 00:17:48;;;;;;;5.68;2.55;;;;;;;;;;10369808;28;20062;-58
2022/08/26 00:22:49;;;;;;;6.38;2.53;;;;;;;;;;10368709;28;20121;-59
2022/08/26 00:27:50;;;;;;;3.85;2.70;;;;;;;;;;10369466;28;20034;-60
2022/08/26 00:32:51;;;;;;;6.05;2.67;;;;;;;;;;10368425;28;20105;-59
2022/08/26 00:37:52;;;;;;;5.18;2.90;;;;;;;;;;10368915;28;20573;-60
2022/08/26 00:42:53;;;;;;;2.70;2.10;;;;;;;;;;10368387;28;20076;-60
2022/08/26 00:48:02;;;;;;;5.07;2.42;;;;;;;;;;10367428;28;20114;-60
2022/08/26 00:53:20;;;;;;;8.85;2.28;;;;;;;;;;10383588;28;20105;-59
2022/08/26 00:58:25;;;;;;;4.43;2.45;;;;;;;;;;10381433;28;20291;-59
2022/08/26 01:03:29;;;;;;;5.80;2.70;;;;;;;;;;10383061;28;20037;-58
2022/08/26 01:08:30;;;;;;;3.38;2.30;;;;;;;;;;10368756;28;20065;-59
2022/08/26 01:13:31;;;;;;;4.03;2.00;;;;;;;;;;10360823;28;20381;-58
2022/08/26 01:18:33;;;;;;;3.42;2.15;;;;;;;;;;10382094;28;20021;-59
2022/08/26 01:23:42;;;;;;;8.73;2.85;;;;;;;;;;10366973;28;20025;-60
2022/08/26 01:28:43;;;;;;;4.28;2.20;;;;;;;;;;10366001;28;20026;-59
2022/08/26 01:34:12;;;;;;;3.28;2.22;;;;;;;;;;10381452;28;20080;-59
2022/08/26 01:39:13;;;;;;;3.20;2.15;;;;;;;;;;10364806;28;20034;-59
2022/08/26 01:44:20;;;;;;;5.28;2.05;;;;;;;;;;10354909;28;20045;-59
2022/08/26 01:49:23;;;;;;;3.15;1.88;;;;;;;;;;10381462;28;20062;-59
2022/08/26 01:54:24;;;;;;;6.28;2.15;;;;;;;;;;10378566;28;20033;-59
2022/08/26 01:59:25;;;;;;;5.88;2.30;;;;;;;;;;10354643;28;20037;-59
2022/08/26 02:04:35;;;;;;;3.55;2.22;;;;;;;;;;10380501;28;20080;-59
2022/08/26 02:09:40;;;;;;;3.38;2.03;;;;;;;;;;10380712;28;20026;-58
2022/08/26 02:14:46;;;;;;;5.03;1.95;;;;;;;;;;10365380;28;20040;-59
2022/08/26 02:19:48;;;;;;;2.95;2.05;;;;;;;;;;10366396;28;20033;-58
2022/08/26 02:24:59;;;;;;;3.67;2.13;;;;;;;;;;10365223;28;20025;-58
2022/08/26 02:30:26;;;;;;;7.30;2.05;;;;;;;;;;10369776;28;20033;-58
2022/08/26 02:35:27;;;;;;;4.30;2.30;;;;;;;;;;10372954;28;20045;-58
2022/08/26 02:40:41;;;;;;;6.80;2.10;;;;;;;;;;10372683;28;20030;-59
2022/08/26 02:45:41;;;;;;;2.75;1.92;;;;;;;;;;10372500;28;20095;-58
2022/08/26 02:50:43;;;;;;;4.22;2.00;;;;;;;;;;10371313;28;20112;-58
2022/08/26 02:55:43;;;;;;;5.50;2.00;;;;;;;;;;10373105;28;20042;-57
2022/08/26 03:00:46;;;;;;;1.88;1.65;;;;;;;;;;10371625;28;20034;-57
2022/08/26 03:05:46;;;;;;;2.38;2.03;;;;;;;;;;10445771;22;20098;-48
2022/08/26 03:10:47;;;;;;;3.40;1.80;;;;;;;;;;10494914;28;20037;-48
2022/08/26 03:15:48;;;;;;;3.00;1.88;;;;;;;;;;10478465;28;20278;-48
2022/08/26 03:20:48;;;;;;;3.00;2.03;;;;;;;;;;10494799;28;20029;-48
2022/08/26 03:25:51;;;;;;;3.15;1.67;;;;;;;;;;10493946;28;20066;-49
2022/08/26 03:30:52;;;;;;;2.45;1.90;;;;;;;;;;10493205;28;20226;-54
2022/08/26 03:35:53;;;;;;;3.72;1.58;;;;;;;;;;10493556;28;20541;-49
2022/08/26 03:40:55;;;;;;;7.85;2.05;;;;;;;;;;10493269;28;20464;-49
2022/08/26 03:45:55;;;;;;;3.60;2.20;;;;;;;;;;10490554;28;20025;-49
2022/08/26 03:50:56;;;;;;;4.00;1.70;;;;;;;;;;10483251;28;20484;-49
2022/08/26 03:55:56;;;;;;;2.05;1.63;;;;;;;;;;10493323;28;20453;-48
2022/08/26 04:00:57;;;;;;;1.80;1.58;;;;;;;;;;10489023;28;20490;-49
2022/08/26 04:05:58;;;;;;;3.85;1.85;;;;;;;;;;10481752;28;20332;-49
2022/08/26 04:11:00;;;;;;;2.20;1.70;;;;;;;;;;10485387;28;20210;-50
2022/08/26 04:16:00;;;;;;;2.85;1.65;;;;;;;;;;10481105;28;20124;-50
2022/08/26 04:21:01;;;;;;;4.28;1.55;;;;;;;;;;10490779;28;20060;-58
2022/08/26 04:26:02;;;;;;;5.80;1.92;;;;;;;;;;10484426;28;20415;-49
2022/08/26 04:31:02;;;;;;;1.77;1.52;;;;;;;;;;10487349;28;20369;-49
2022/08/26 04:36:04;;;;;;;2.92;1.70;;;;;;;;;;10485981;28;20399;-52
2022/08/26 04:41:12;;;;;;;1.95;1.60;;;;;;;;;;10490790;28;20056;-54
2022/08/26 04:46:18;;;;;;;1.88;1.40;;;;;;;;;;10477147;28;20029;-51
2022/08/26 04:51:20;;;;;;;1.90;1.70;;;;;;;;;;10459558;28;20096;-51
2022/08/26 04:56:24;;;;;;;2.80;1.75;;;;;;;;;;10480969;28;20035;-50
2022/08/26 05:01:24;;;;;;;4.53;1.80;;;;;;;;;;10490441;28;20028;-54
2022/08/26 05:06:25;;;;;;;3.60;1.80;;;;;;;;;;10476454;28;20056;-55
2022/08/26 05:11:26;;;;;;;3.72;1.60;;;;;;;;;;10481982;28;20541;-56
2022/08/26 05:16:28;;;;;;;1.92;1.60;;;;;;;;;;10475679;28;20078;-49
2022/08/26 05:21:28;;;;;;;3.13;1.98;;;;;;;;;;10478637;28;20033;-48
2022/08/26 05:26:30;;;;;;;2.83;1.63;;;;;;;;;;10475092;28;20024;-49
2022/08/26 05:31:32;;;;;;;3.55;1.70;;;;;;;;;;10483861;28;20024;-49
2022/08/26 05:36:34;;;;;;;8.10;2.17;;;;;;;;;;10483051;28;20021;-58
2022/08/26 05:41:39;;;;;;;3.35;2.00;;;;;;;;;;10473644;28;20071;-57
2022/08/26 05:46:41;;;;;;;3.28;2.80;;;;;;;;;;10487344;28;20481;-59
2022/08/26 05:51:45;;;;;;;4.10;2.50;;;;;;;;;;10487119;28;20036;-57
2022/08/26 05:56:45;;;;;;;5.32;2.10;;;;;;;;;;10486614;28;20036;-60
2022/08/26 06:01:46;;;;;;;3.47;2.17;;;;;;;;;;10488599;28;20129;-57
2022/08/26 06:06:47;;;;;;;10.73;3.05;;;;;;;;;;10493973;28;20032;-62
2022/08/26 06:11:47;;;;;;;3.08;2.75;;;;;;;;;;10493643;28;20062;-61
2022/08/26 06:16:48;;;;;;;2.80;2.40;;;;;;;;;;10468415;28;20037;-61
2022/08/26 06:21:50;;;;;;;6.95;2.60;;;;;;;;;;10497515;28;20028;-62
2022/08/26 06:26:55;;;;;;;3.28;2.45;;;;;;;;;;10496434;28;20031;-62
2022/08/26 06:31:56;;;;;;;5.28;2.30;;;;;;;;;;10496152;28;20028;-62
2022/08/26 06:37:01;;;;;;;4.32;2.70;;;;;;;;;;10482450;28;20456;-62
2022/08/26 06:42:01;;;;;;;4.50;2.22;;;;;;;;;;10481254;28;20056;-60
2022/08/26 06:47:02;;;;;;;3.63;2.58;;;;;;;;;;10492558;28;20032;-61
2022/08/26 06:52:03;;;;;;;2.40;2.20;;;;;;;;;;10493826;28;20056;-61
2022/08/26 06:57:03;;;;;;;3.75;2.42;;;;;;;;;;10489090;28;20064;-60
2022/08/26 07:02:04;;;;;;;2.80;2.03;;;;;;;;;;10486461;28;20028;-62
2022/08/26 07:07:05;;;;;;;6.07;2.40;;;;;;;;;;10494422;28;20094;-59
2022/08/26 07:12:06;;;;;;;4.88;2.47;;;;;;;;;;10491748;28;20036;-61
2022/08/26 07:17:06;;;;;;;3.58;2.60;;;;;;;;;;10474819;28;20036;-60
2022/08/26 07:22:07;;;;;;;3.40;2.40;;;;;;;;;;10493057;28;20036;-62
2022/08/26 07:27:13;;;;;;;3.65;2.10;;;;;;;;;;10493311;28;20021;-61
2022/08/26 07:32:15;;;;;;;2.60;2.20;;;;;;;;;;10481519;28;20107;-61
2022/08/26 07:37:17;;;;;;;2.63;2.10;;;;;;;;;;10492987;28;20032;-61
2022/08/26 07:42:19;;;;;;;2.33;2.10;;;;;;;;;;10488311;28;20025;-60
2022/08/26 07:47:19;;;;;;;5.75;2.53;;;;;;;;;;10492097;28;20452;-60
2022/08/26 07:52:20;;;;;;;2.17;1.95;;;;;;;;;;10483792;28;20111;-60
2022/08/26 07:57:21;;;;;;;3.50;2.38;;;;;;;;;;10479519;28;20159;-60
2022/08/26 08:02:23;;;;;;;3.38;2.03;;;;;;;;;;10469985;28;20369;-60
2022/08/26 08:07:25;;;;;;;2.70;2.08;;;;;;;;;;10477785;28;20075;-60
2022/08/26 08:12:26;;;;;;;4.45;2.40;;;;;;;;;;10481611;28;20514;-60
2022/08/26 08:17:26;;;;;;;3.72;1.98;;;;;;;;;;10488053;28;20185;-61
2022/08/26 08:22:27;;;;;;;2.60;2.08;;;;;;;;;;10491078;28;20053;-59
2022/08/26 08:27:27;;;;;;;4.90;2.38;;;;;;;;;;10484484;28;20032;-60
2022/08/26 08:32:28;;;;;;;5.70;2.15;;;;;;;;;;10479119;28;20546;-61
2022/08/26 08:37:29;;;;;;;3.92;2.03;;;;;;;;;;10470067;28;20476;-61
2022/08/26 08:43:02;;;;;;;3.05;2.30;;;;;;;;;;10483499;28;20028;-58
2022/08/26 08:48:22;;;;;;;4.30;1.92;;;;;;;;;;10490031;28;20127;-60
2022/08/26 08:53:40;;;;;;;3.75;2.33;;;;;;;;;;10490160;28;20031;-61
2022/08/26 08:58:52;;;;;;;2.58;2.10;;;;;;;;;;10486732;28;20028;-59
2022/08/26 09:04:04;;;;;;;2.97;2.25;;;;;;;;;;10485342;28;20456;-58
2022/08/26 09:09:06;;;;;;;2.45;1.75;;;;;;;;;;10488756;28;20459;-59
2022/08/26 09:14:08;;;;;;;3.28;1.98;;;;;;;;;;10467513;28;20376;-58
2022/08/26 09:19:32;;;;;;;2.58;1.92;;;;;;;;;;10464609;28;20035;-58
2022/08/26 09:24:36;;;;;;;2.65;1.90;;;;;;;;;;10459617;28;20033;-59
2022/08/26 09:29:44;;;;;;;2.25;2.03;;;;;;;;;;10485411;28;20125;-58
2022/08/26 09:34:54;;;;;;;2.40;2.20;;;;;;;;;;10488593;28;20036;-59
2022/08/26 09:40:26;;;;;;;6.15;2.30;;;;;;;;;;10480572;28;20049;-61
2022/08/26 09:45:27;;;;;;;5.28;2.50;;;;;;;;;;10476092;28;20352;-60
2022/08/26 09:50:50;;;;;;;4.50;2.25;;;;;;;;;;10489075;28;20020;-61
2022/08/26 09:56:24;;;;;;;3.20;2.28;;;;;;;;;;10477176;28;20153;-60
2022/08/26 10:01:30;;;;;;;4.45;2.25;;;;;;;;;;10478292;28;20031;-60
2022/08/26 10:06:59;;;;;;;2.65;2.28;;;;;;;;;;10488907;28;20044;-60
2022/08/26 10:12:15;;;;;;;3.22;2.40;;;;;;;;;;10463172;28;20079;-61
2022/08/26 10:17:31;;;;;;;2.10;1.77;;;;;;;;;;10471713;28;20029;-61
2022/08/26 10:23:05;;;;;;;4.72;2.65;;;;;;;;;;10469723;28;20036;-61
2022/08/26 10:28:16;;;;;;;3.28;2.40;;;;;;;;;;10486489;28;20029;-61
2022/08/26 10:33:17;;;;;;;3.03;2.30;;;;;;;;;;10467001;28;20454;-61
2022/08/26 10:38:31;;;;;;;2.53;2.33;;;;;;;;;;10460289;28;20024;-60
2022/08/26 10:43:57;;;;;;;3.22;2.20;;;;;;;;;;10454054;28;20112;-61
2022/08/26 10:49:04;;;;;;;2.20;2.00;;;;;;;;;;10459602;28;20226;-61
2022/08/26 10:54:38;;;;;;;4.17;2.50;;;;;;;;;;10477246;28;20040;-59
2022/08/26 11:01:40;;;;;;;6.07;2.17;;;;;;;;;;10477468;28;20698;-59
2022/08/26 11:05:28;;;;;;;3.35;2.45;;;;;;;;;;10490192;28;20732;-58
2022/08/26 11:10:57;;;;;;;3.22;2.47;;;;;;;;;;10494647;28;20024;-59
2022/08/26 11:15:58;;;;;;;2.30;2.10;;;;;;;;;;10485491;28;20520;-59
2022/08/26 11:20:58;;;;;;;3.22;2.45;;;;;;;;;;10491751;28;20111;-59
2022/08/26 11:26:08;;;;;;;2.83;2.35;;;;;;;;;;10493135;28;20294;-60
2022/08/26 11:31:29;;;;;;;4.28;2.72;;;;;;;;;;10480625;28;20479;-59
2022/08/26 11:36:44;;;;;;;6.25;2.90;;;;;;;;;;10488136;28;20056;-61
2022/08/26 11:41:51;;;;;;;2.95;2.65;;;;;;;;;;10477077;28;20043;-59
2022/08/26 11:46:59;;;;;;;4.32;3.33;;;;;;;;;;10489376;28;20024;-60
2022/08/26 11:52:21;;;;;;;5.72;3.40;;;;;;;;;;10480144;28;20352;-61
2022/08/26 11:57:22;;;;;;;5.88;4.00;;;;;;;;;;10471750;28;20035;-61
2022/08/26 12:02:23;;;;;;;6.60;4.15;;;;;;;;;;10474508;28;20024;-61
2022/08/26 12:07:28;;;;;;;5.20;4.00;;;;;;;;;;10483765;28;20492;-61
2022/08/26 12:12:32;;;;;;;6.63;4.60;;;;;;;;;;10463380;28;20028;-59
2022/08/26 12:17:33;;;;;;;7.43;4.30;;;;;;;;;;10486039;28;20033;-61
2022/08/26 12:22:34;;;;;;;9.25;4.07;;;;;;;;;;10486721;28;20032;-60
2022/08/26 12:27:44;;;;;;;5.30;4.07;;;;;;;;;;10489895;28;20159;-61
2022/08/26 12:32:52;;;;;;;5.28;4.43;;;;;;;;;;10465582;28;20135;-62
2022/08/26 12:37:54;;;;;;;6.18;4.40;;;;;;;;;;10491919;28;20035;-60
2022/08/26 12:42:55;;;;;;;9.45;4.40;;;;;;;;;;10452513;28;20028;-60
2022/08/26 12:48:01;;;;;;;9.90;4.78;;;;;;;;;;10483779;28;20071;-60
2022/08/26 12:53:07;;;;;;;8.55;4.55;;;;;;;;;;10457177;28;20029;-61
2022/08/26 12:58:32;;;;;;;7.80;5.13;;;;;;;;;;10465667;28;20281;-59
2022/08/26 13:03:33;;;;;;;6.50;4.18;;;;;;;;;;10474703;28;20412;-59
2022/08/26 13:08:34;;;;;;;6.37;4.00;;;;;;;;;;10476294;28;20043;-59
2022/08/26 13:13:36;;;;;;;5.20;4.22;;;;;;;;;;10472263;28;20957;-59
2022/08/26 13:18:37;;;;;;;5.32;4.60;;;;;;;;;;10479605;28;20070;-59
2022/08/26 13:23:37;;;;;;;5.35;4.18;;;;;;;;;;10488247;28;20052;-59
2022/08/26 13:28:38;;;;;;;4.82;4.28;;;;;;;;;;10488251;28;20036;-58
2022/08/26 13:33:40;;;;;;;6.18;3.67;;;;;;;;;;10486370;28;20036;-58
2022/08/26 13:38:41;;;;;;;6.45;4.72;;;;;;;;;;10478437;28;20064;-59
2022/08/26 13:43:42;;;;;;;5.07;3.97;;;;;;;;;;10475629;28;20029;-59
2022/08/26 13:48:42;;;;;;;7.85;4.38;;;;;;;;;;10488724;28;20031;-58
2022/08/26 13:53:43;;;;;;;8.05;4.65;;;;;;;;;;10488280;28;20071;-58
2022/08/26 13:58:45;;;;;;;5.60;3.90;;;;;;;;;;10488281;28;20251;-59
2022/08/26 14:03:46;;;;;;;4.05;3.67;;;;;;;;;;10486384;28;20045;-59
2022/08/26 14:08:47;;;;;;;5.70;3.92;;;;;;;;;;10474782;28;20091;-58
2022/08/26 14:13:47;;;;;;;5.03;4.28;;;;;;;;;;10476724;28;20070;-59
2022/08/26 14:18:48;;;;;;;4.72;3.80;;;;;;;;;;10488309;28;20032;-60
2022/08/26 14:23:49;;;;;;;5.63;4.07;;;;;;;;;;10488375;28;20165;-61
2022/08/26 14:28:50;;;;;;;5.43;4.13;;;;;;;;;;10491671;28;20032;-60
2022/08/26 14:33:51;;;;;;;5.35;3.90;;;;;;;;;;10491360;28;20043;-60
2022/08/26 14:38:52;;;;;;;5.72;3.80;;;;;;;;;;10493771;28;20028;-60
2022/08/26 14:43:58;;;;;;;6.72;4.03;;;;;;;;;;10494923;28;20093;-61
2022/08/26 14:49:01;;;;;;;8.52;3.88;;;;;;;;;;10492795;28;20290;-59
2022/08/26 14:54:11;;;;;;;7.28;3.78;;;;;;;;;;10493874;28;20559;-60
2022/08/26 14:59:24;;;;;;;4.25;3.85;;;;;;;;;;10487828;28;20404;-60
2022/08/26 15:04:25;;;;;;;6.53;3.90;;;;;;;;;;10491813;28;20032;-61
2022/08/26 15:09:32;;;;;;;6.07;4.00;;;;;;;;;;10494821;28;20047;-60
2022/08/26 15:14:33;;;;;;;7.25;3.63;;;;;;;;;;10489408;28;20028;-60
2022/08/26 15:19:34;;;;;;;8.43;4.43;;;;;;;;;;10491064;28;20040;-60
2022/08/26 15:24:35;;;;;;;4.85;3.85;;;;;;;;;;10486443;28;20040;-60
2022/08/26 15:29:36;;;;;;;5.32;3.85;;;;;;;;;;10486262;28;20036;-60
2022/08/26 15:34:37;;;;;;;5.93;3.83;;;;;;;;;;10489067;28;20090;-60
2022/08/26 15:39:38;;;;;;;4.78;3.70;;;;;;;;;;10477011;28;20089;-60
2022/08/26 15:44:43;;;;;;;5.22;4.05;;;;;;;;;;10462350;28;20094;-60
2022/08/26 15:49:45;;;;;;;5.68;3.72;;;;;;;;;;10487753;28;20024;-62
2022/08/26 15:54:45;;;;;;;11.35;4.22;;;;;;;;;;10442430;28;20182;-62
2022/08/26 15:59:46;;;;;;;6.53;4.55;;;;;;;;;;10474525;28;20391;-62
2022/08/26 16:04:47;;;;;;;10.68;4.00;;;;;;;;;;10481320;28;20111;-59
2022/08/26 16:09:50;;;;;;;10.63;4.93;;;;;;;;;;10482687;28;20655;-60
2022/08/26 16:14:52;;;;;;;11.85;5.05;;;;;;;;;;10481153;28;20252;-62
2022/08/26 16:19:53;;;;;;;10.88;4.47;;;;;;;;;;10480295;28;20557;-62
2022/08/26 16:24:57;;;;;;;11.57;4.72;;;;;;;;;;10489595;28;20078;-59
2022/08/26 16:29:57;;;;;;;18.08;4.70;;;;;;;;;;10482208;28;20448;-58
2022/08/26 16:34:58;;;;;;;9.98;4.35;;;;;;;;;;10484309;28;20032;-61
2022/08/26 16:39:58;;;;;;;14.65;4.50;;;;;;;;;;10476737;28;20029;-61
2022/08/26 16:44:59;;;;;;;8.30;4.80;;;;;;;;;;10490641;28;20032;-60
2022/08/26 16:50:00;;;;;;;9.95;4.78;;;;;;;;;;10489795;28;20384;-61
2022/08/26 16:55:00;;;;;;;11.48;5.07;;;;;;;;;;10490589;28;20033;-62
2022/08/26 17:00:11;;;;;;;11.20;4.90;;;;;;;;;;10490813;28;20051;-58
2022/08/26 17:05:13;;;;;;;8.75;4.50;;;;;;;;;;10504373;28;20127;-61
2022/08/26 17:10:14;;;;;;;9.68;4.90;;;;;;;;;;10488451;28;20036;-58
2022/08/26 17:15:16;;;;;;;13.73;5.22;;;;;;;;;;10477470;28;20387;-61
2022/08/26 17:20:18;;;;;;;17.27;4.88;;;;;;;;;;10479786;28;20545;-59
2022/08/26 17:25:29;;;;;;;9.93;4.95;;;;;;;;;;10472441;28;20107;-60
2022/08/26 17:30:29;;;;;;;8.82;4.57;;;;;;;;;;10485700;28;20078;-60
2022/08/26 17:35:31;;;;;;;14.10;4.15;;;;;;;;;;10478034;28;20058;-59
2022/08/26 17:40:32;;;;;;;10.25;4.57;;;;;;;;;;10475346;28;20083;-59
2022/08/26 17:45:38;;;;;;;17.45;4.15;;;;;;;;;;10486489;28;20199;-58
2022/08/26 17:50:41;;;;;;;20.65;5.97;;;;;;;;;;10484860;28;20037;-57
2022/08/26 17:55:41;;;;;;;13.95;5.78;;;;;;;;;;10476508;28;20098;-59
2022/08/26 18:00:48;;;;;;;14.45;5.63;;;;;;;;;;10480160;28;20025;-59
2022/08/26 18:05:51;;;;;;;15.65;5.80;;;;;;;;;;10487143;28;20043;-58
2022/08/26 18:10:51;;;;;;;11.60;5.75;;;;;;;;;;10492384;28;20025;-55
2022/08/26 18:15:52;;;;;;;17.67;5.60;;;;;;;;;;10472182;28;20029;-61
2022/08/26 18:20:53;;;;;;;14.43;4.78;;;;;;;;;;10486803;28;20024;-57
2022/08/26 18:25:53;;;;;;;9.90;5.00;;;;;;;;;;10470201;28;20499;-50
2022/08/26 18:30:54;;;;;;;14.95;5.38;;;;;;;;;;10487606;28;20415;-51
2022/08/26 18:35:54;;;;;;;8.73;5.00;;;;;;;;;;10482858;28;20476;-50
2022/08/26 18:40:55;;;;;;;8.75;4.28;;;;;;;;;;10490039;28;20380;-54
2022/08/26 18:46:06;;;;;;;15.13;4.75;;;;;;;;;;10486722;28;20056;-56
2022/08/26 18:51:07;;;;;;;10.13;4.45;;;;;;;;;;10495061;28;20071;-60
2022/08/26 18:56:07;;;;;;;9.60;4.93;;;;;;;;;;10484066;28;20468;-61
2022/08/26 19:01:09;;;;;;;8.93;4.10;;;;;;;;;;10485343;28;20063;-60
2022/08/26 19:06:19;;;;;;;10.60;5.75;;;;;;;;;;10486029;28;20048;-60
2022/08/26 19:11:21;;;;;;;14.48;5.03;;;;;;;;;;10477959;28;20036;-55
2022/08/26 19:16:25;;;;;;;8.30;4.28;;;;;;;;;;10486208;28;20025;-57
2022/08/26 19:21:26;;;;;;;9.25;3.88;;;;;;;;;;10485637;28;20031;-60
2022/08/26 19:26:29;;;;;;;6.80;3.67;;;;;;;;;;10489197;28;20025;-61
2022/08/26 19:31:30;;;;;;;10.60;3.75;;;;;;;;;;10478532;28;20024;-60
2022/08/26 19:36:31;;;;;;;9.20;3.75;;;;;;;;;;10476975;28;20068;-58
2022/08/26 19:41:36;;;;;;;8.98;3.63;;;;;;;;;;10474687;28;20017;-60
2022/08/26 19:46:37;;;;;;;10.82;3.20;;;;;;;;;;10481739;28;20101;-57
2022/08/26 19:51:38;;;;;;;5.15;3.83;;;;;;;;;;10486249;28;20426;-58
2022/08/26 19:56:38;;;;;;;10.48;3.53;;;;;;;;;;10490020;28;20123;-59
2022/08/26 20:01:39;;;;;;;7.82;4.10;;;;;;;;;;10471722;28;20029;-57
2022/08/26 20:06:40;;;;;;;14.48;4.13;;;;;;;;;;10475182;28;20053;-58
2022/08/26 20:11:40;;;;;;;12.10;4.78;;;;;;;;;;10454813;28;20032;-57
2022/08/26 20:16:41;;;;;;;9.48;4.25;;;;;;;;;;10478953;28;20032;-57
2022/08/26 20:21:41;;;;;;;9.95;3.78;;;;;;;;;;10490023;28;20036;-59
2022/08/26 20:26:43;;;;;;;13.05;3.97;;;;;;;;;;10478241;28;20021;-58
2022/08/26 20:31:46;;;;;;;11.40;4.13;;;;;;;;;;10479757;28;20503;-54
2022/08/26 20:36:49;;;;;;;6.90;3.78;;;;;;;;;;10484827;28;20417;-58
2022/08/26 20:41:50;;;;;;;7.15;3.90;;;;;;;;;;10490024;28;20039;-53
2022/08/26 20:46:50;;;;;;;9.05;3.70;;;;;;;;;;10489985;28;20020;-57
2022/08/26 20:51:51;;;;;;;5.82;3.63;;;;;;;;;;10488284;28;20187;-59
2022/08/26 20:56:53;;;;;;;14.63;4.35;;;;;;;;;;10488522;28;20418;-59
2022/08/26 21:01:54;;;;;;;5.70;3.80;;;;;;;;;;10487481;28;20028;-57
2022/08/26 21:06:55;;;;;;;9.70;4.35;;;;;;;;;;10489645;28;20061;-55
2022/08/26 21:11:56;;;;;;;8.85;3.92;;;;;;;;;;10489281;28;20032;-59
2022/08/26 21:16:56;;;;;;;8.80;3.75;;;;;;;;;;10489240;28;20070;-54
2022/08/26 21:21:58;;;;;;;7.93;3.45;;;;;;;;;;10489070;28;20384;-58
2022/08/26 21:26:58;;;;;;;6.78;3.85;;;;;;;;;;10489730;28;20028;-59
2022/08/26 21:31:59;;;;;;;7.32;3.85;;;;;;;;;;10480528;28;20048;-54
2022/08/26 21:36:59;;;;;;;5.32;3.40;;;;;;;;;;10475751;28;20024;-59
2022/08/26 21:42:00;;;;;;;10.38;4.00;;;;;;;;;;10482852;28;20098;-57
2022/08/26 21:47:02;;;;;;;7.88;3.80;;;;;;;;;;10486308;28;20029;-58
2022/08/26 21:52:03;;;;;;;9.18;4.00;;;;;;;;;;10487752;28;20028;-58
2022/08/26 21:57:05;;;;;;;9.60;3.50;;;;;;;;;;10485186;28;20545;-59
2022/08/26 22:02:06;;;;;;;9.27;4.30;;;;;;;;;;10472399;28;20111;-57
2022/08/26 22:07:06;;;;;;;8.18;4.32;;;;;;;;;;10475483;28;20044;-59
2022/08/26 22:12:09;;;;;;;7.72;3.88;;;;;;;;;;10487844;28;20577;-59
2022/08/26 22:17:10;;;;;;;9.77;4.15;;;;;;;;;;10489319;28;20120;-59
2022/08/26 22:22:11;;;;;;;6.40;4.28;;;;;;;;;;10478611;28;20025;-57
2022/08/26 22:27:13;;;;;;;6.13;3.35;;;;;;;;;;10481798;28;20031;-57
2022/08/26 22:32:14;;;;;;;8.27;4.05;;;;;;;;;;10464406;28;20033;-52
2022/08/26 22:37:14;;;;;;;6.63;4.20;;;;;;;;;;10475981;28;20048;-60
2022/08/26 22:42:15;;;;;;;5.60;3.80;;;;;;;;;;10480064;28;20041;-60
2022/08/26 22:47:15;;;;;;;3.88;3.35;;;;;;;;;;10480987;28;20035;-59
2022/08/26 22:52:16;;;;;;;5.97;3.75;;;;;;;;;;10454702;28;20041;-59
2022/08/26 22:57:16;;;;;;;4.82;3.25;;;;;;;;;;10494533;28;20460;-58
2022/08/26 23:02:17;;;;;;;6.47;3.20;;;;;;;;;;10473868;28;20877;-58
2022/08/26 23:07:18;;;;;;;5.60;3.08;;;;;;;;;;10467602;28;20068;-58
2022/08/26 23:12:18;;;;;;;4.25;3.60;;;;;;;;;;10467555;28;20028;-52
2022/08/26 23:17:20;;;;;;;8.32;4.18;;;;;;;;;;10475981;28;20051;-50
2022/08/26 23:22:20;;;;;;;11.43;4.50;;;;;;;;;;10491796;28;20475;-56
2022/08/26 23:27:21;;;;;;;11.13;4.05;;;;;;;;;;10484376;28;20161;-57
2022/08/26 23:32:21;;;;;;;8.93;3.90;;;;;;;;;;10482373;28;20477;-56
2022/08/26 23:37:43;;;;;;;6.20;3.67;;;;;;;;;;10472931;28;20475;-56
2022/08/26 23:42:43;;;;;;;5.55;3.35;;;;;;;;;;10473978;28;20025;-57
2022/08/26 23:47:45;;;;;;;7.85;3.97;;;;;;;;;;10491883;28;20024;-56
2022/08/26 23:53:05;;;;;;;7.47;3.42;;;;;;;;;;10475636;28;20115;-57
2022/08/26 23:58:05;;;;;;;8.80;3.85;;;;;;;;;;10478263;28;20116;-57
